F/V Moorea — FMIT — position and weather

sailwx.info

Track history (hours):
 
Tides and Currents Weather Stations Pressure Air Temp Water Temp Dewpoint Dewpoint Depression Visibility Wind Speed Wind Dir Waves Ship Positions

F/V Moorea

Last reported at 2015-Sep-01 05:15 UTC. Time now 2015-Sep-02 00:20 UTC.
Position N 47°06' W 002°44'.

Length 18 m.

Type: Fishing. MMSI: 228239900.

Date/timePositionNaut miles runAvg speedWind from/ knotsBaromVisibWave heightAir tempDewpointWater temp
2015-Sep-01 05:15N 47°06' W 002°44'7 9.7
2015-Sep-01 04:33N 47°12' W 002°39'8 7.9
2015-Sep-01 03:32N 47°18' W 002°31'1 0.7
2015-Sep-01 01:33N 47°19' W 002°32'17 0.7
2015-Aug-31 03:04N 47°04' W 002°44'5 9.3
2015-Aug-31 02:33N 47°09' W 002°41'9 9.2
2015-Aug-31 01:33N 47°17' W 002°35'  
2015-Aug-28 01:03N 47°18' W 002°31'0 0.0
2015-Aug-28 00:29N 47°18' W 002°31'42 1.4
2015-Aug-26 19:08N 46°42' W 003°01'1 1.3
2015-Aug-26 18:24N 46°41' W 003°01'26 0.6
2015-Aug-25 02:16N 47°02' W 002°41'5 6.3
2015-Aug-25 01:29N 47°07' W 002°38'9 9.5
2015-Aug-25 00:33N 47°15' W 002°36'4 4.0
2015-Aug-24 23:33N 47°18' W 002°31'0 0.0
2015-Aug-24 22:32N 47°18' W 002°31'0 0.0
2015-Aug-24 21:33N 47°18' W 002°31'0 0.0
2015-Aug-24 20:32N 47°18' W 002°31'13 0.3
2015-Aug-23 07:15N 47°10' W 002°45'7 9.2
2015-Aug-23 06:33N 47°14' W 002°38'6 0.9
2015-Aug-22 23:30N 47°18' W 002°31'41 2.7
2015-Aug-22 08:26N 46°47' W 003°09'2 1.5
2015-Aug-22 07:18N 46°46' W 003°07'1 1.1
2015-Aug-22 06:33N 46°47' W 003°07'1 0.8
2015-Aug-22 05:33N 46°47' W 003°08'  
Track history (hours):
 
Tides and Currents Weather Stations Pressure Air Temp Water Temp Dewpoint Dewpoint Depression Visibility Wind Speed Wind Dir Waves Ship Positions

F/V Moorea

Last reported at 2015-Sep-01 05:15 UTC. Time now 2015-Sep-02 00:20 UTC.
Position N 47°06' W 002°44'.

Length 18 m.

Type: Fishing. MMSI: 228239900.

Date/timePositionNaut miles runAvg speedWind from/ knotsBaromVisibWave heightAir tempDewpointWater temp
2015-Sep-01 05:15N 47°06' W 002°44'7 9.7
2015-Sep-01 04:33N 47°12' W 002°39'8 7.9
2015-Sep-01 03:32N 47°18' W 002°31'1 0.7
2015-Sep-01 01:33N 47°19' W 002°32'17 0.7
2015-Aug-31 03:04N 47°04' W 002°44'5 9.3
2015-Aug-31 02:33N 47°09' W 002°41'9 9.2
2015-Aug-31 01:33N 47°17' W 002°35'  
2015-Aug-28 01:03N 47°18' W 002°31'0 0.0
2015-Aug-28 00:29N 47°18' W 002°31'42 1.4
2015-Aug-26 19:08N 46°42' W 003°01'1 1.3
2015-Aug-26 18:24N 46°41' W 003°01'26 0.6
2015-Aug-25 02:16N 47°02' W 002°41'5 6.3
2015-Aug-25 01:29N 47°07' W 002°38'9 9.5
2015-Aug-25 00:33N 47°15' W 002°36'4 4.0
2015-Aug-24 23:33N 47°18' W 002°31'0 0.0
2015-Aug-24 22:32N 47°18' W 002°31'0 0.0
2015-Aug-24 21:33N 47°18' W 002°31'0 0.0
2015-Aug-24 20:32N 47°18' W 002°31'13 0.3
2015-Aug-23 07:15N 47°10' W 002°45'7 9.2
2015-Aug-23 06:33N 47°14' W 002°38'6 0.9
2015-Aug-22 23:30N 47°18' W 002°31'41 2.7
2015-Aug-22 08:26N 46°47' W 003°09'2 1.5
2015-Aug-22 07:18N 46°46' W 003°07'1 1.1
2015-Aug-22 06:33N 46°47' W 003°07'1 0.8
2015-Aug-22 05:33N 46°47' W 003°08'  

Dump ship's entire track history